sensor_id;sensor_type;location;lat;lon;timestamp;pressure;altitude;pressure_sealevel;temperature;humidity
19624;BME280;9959;49.798;9.928;2023-01-16T00:00:04;98432.47;;;2.96;82.51
19624;BME280;9959;49.798;9.928;2023-01-16T00:02:31;98425.25;;;2.90;82.82
19624;BME280;9959;49.798;9.928;2023-01-16T00:04:59;98431.88;;;3.01;82.90
19624;BME280;9959;49.798;9.928;2023-01-16T00:07:26;98431.28;;;2.99;83.07
19624;BME280;9959;49.798;9.928;2023-01-16T00:09:53;98422.69;;;3.03;82.57
19624;BME280;9959;49.798;9.928;2023-01-16T00:12:19;98422.06;;;3.01;82.25
19624;BME280;9959;49.798;9.928;2023-01-16T00:14:46;98414.69;;;3.03;82.47
19624;BME280;9959;49.798;9.928;2023-01-16T00:17:13;98414.31;;;3.06;81.68
19624;BME280;9959;49.798;9.928;2023-01-16T00:19:39;98405.38;;;3.14;81.84
19624;BME280;9959;49.798;9.928;2023-01-16T00:22:06;98397.72;;;3.04;81.73
19624;BME280;9959;49.798;9.928;2023-01-16T00:24:33;98389.31;;;3.01;82.38
19624;BME280;9959;49.798;9.928;2023-01-16T00:26:59;98396.75;;;3.12;82.50
19624;BME280;9959;49.798;9.928;2023-01-16T00:29:26;98394.91;;;3.13;82.19
19624;BME280;9959;49.798;9.928;2023-01-16T00:31:53;98391.00;;;3.09;82.02
19624;BME280;9959;49.798;9.928;2023-01-16T00:34:19;98385.72;;;3.15;81.63
19624;BME280;9959;49.798;9.928;2023-01-16T00:36:46;98385.72;;;3.15;82.04
19624;BME280;9959;49.798;9.928;2023-01-16T00:39:13;98372.63;;;3.14;82.29
19624;BME280;9959;49.798;9.928;2023-01-16T00:41:40;98372.88;;;3.19;81.89
19624;BME280;9959;49.798;9.928;2023-01-16T00:44:06;98373.50;;;3.21;82.11
19624;BME280;9959;49.798;9.928;2023-01-16T00:46:33;98363.28;;;3.31;81.36
19624;BME280;9959;49.798;9.928;2023-01-16T00:49:00;98351.00;;;3.30;81.25
19624;BME280;9959;49.798;9.928;2023-01-16T00:51:27;98357.56;;;3.34;81.86
19624;BME280;9959;49.798;9.928;2023-01-16T00:53:54;98353.50;;;3.38;82.21
19624;BME280;9959;49.798;9.928;2023-01-16T00:56:20;98351.28;;;3.42;80.93
19624;BME280;9959;49.798;9.928;2023-01-16T00:58:47;98341.59;;;3.34;81.60
19624;BME280;9959;49.798;9.928;2023-01-16T01:01:14;98342.63;;;3.33;82.10
19624;BME280;9959;49.798;9.928;2023-01-16T01:03:41;98325.63;;;3.34;81.66
19624;BME280;9959;49.798;9.928;2023-01-16T01:06:09;98329.53;;;3.38;81.32
19624;BME280;9959;49.798;9.928;2023-01-16T01:08:37;98318.75;;;3.46;81.13
19624;BME280;9959;49.798;9.928;2023-01-16T01:11:13;98329.78;;;3.43;81.33
19624;BME280;9959;49.798;9.928;2023-01-16T01:13:41;98313.41;;;3.46;81.08
19624;BME280;9959;49.798;9.928;2023-01-16T01:16:09;98315.06;;;3.47;80.46
19624;BME280;9959;49.798;9.928;2023-01-16T01:18:37;98303.63;;;3.53;80.16
19624;BME280;9959;49.798;9.928;2023-01-16T01:21:04;98303.63;;;3.53;81.26
19624;BME280;9959;49.798;9.928;2023-01-16T01:23:31;98301.97;;;3.52;80.09
19624;BME280;9959;49.798;9.928;2023-01-16T01:25:58;98306.06;;;3.61;80.42
19624;BME280;9959;49.798;9.928;2023-01-16T01:28:25;98297.06;;;3.62;80.50
19624;BME280;9959;49.798;9.928;2023-01-16T01:30:51;98286.38;;;3.56;80.65
19624;BME280;9959;49.798;9.928;2023-01-16T01:33:18;98282.34;;;3.66;80.15
19624;BME280;9959;49.798;9.928;2023-01-16T01:35:45;98270.47;;;3.69;79.77
19624;BME280;9959;49.798;9.928;2023-01-16T01:38:12;98258.59;;;3.71;78.58
19624;BME280;9959;49.798;9.928;2023-01-16T01:40:39;98256.13;;;3.70;78.86
19624;BME280;9959;49.798;9.928;2023-01-16T01:43:12;98248.34;;;3.75;78.93
19624;BME280;9959;49.798;9.928;2023-01-16T01:45:41;98235.84;;;3.76;77.30
19624;BME280;9959;49.798;9.928;2023-01-16T01:56:27;98221.53;;;3.77;76.99
19624;BME280;9959;49.798;9.928;2023-01-16T01:59:00;98213.09;;;3.86;75.69
19624;BME280;9959;49.798;9.928;2023-01-16T02:01:29;98218.03;;;3.76;76.89
19624;BME280;9959;49.798;9.928;2023-01-16T02:04:00;98207.59;;;3.74;76.26
19624;BME280;9959;49.798;9.928;2023-01-16T02:06:34;98192.19;;;3.83;74.67
19624;BME280;9959;49.798;9.928;2023-01-16T02:09:04;98184.44;;;3.75;74.46
19624;BME280;9959;49.798;9.928;2023-01-16T02:11:35;98178.28;;;3.81;75.40
19624;BME280;9959;49.798;9.928;2023-01-16T02:14:08;98179.91;;;3.62;75.94
19624;BME280;9959;49.798;9.928;2023-01-16T02:16:36;98169.88;;;3.64;75.70
19624;BME280;9959;49.798;9.928;2023-01-16T02:19:05;98160.25;;;3.70;75.64
19624;BME280;9959;49.798;9.928;2023-01-16T02:35:01;98125.41;;;3.45;78.01
19624;BME280;9959;49.798;9.928;2023-01-16T02:45:58;98096.31;;;3.30;78.71
19624;BME280;9959;49.798;9.928;2023-01-16T02:48:33;98090.59;;;3.40;77.82
19624;BME280;9959;49.798;9.928;2023-01-16T02:56:46;98075.47;;;3.47;77.66
19624;BME280;9959;49.798;9.928;2023-01-16T02:59:16;98073.41;;;3.49;77.20
19624;BME280;9959;49.798;9.928;2023-01-16T03:01:46;98062.75;;;3.49;77.22
19624;BME280;9959;49.798;9.928;2023-01-16T03:09:40;98054.97;;;3.67;76.77
19624;BME280;9959;49.798;9.928;2023-01-16T03:12:36;98040.22;;;3.58;76.53
19624;BME280;9959;49.798;9.928;2023-01-16T03:15:21;98035.28;;;3.68;76.62
19624;BME280;9959;49.798;9.928;2023-01-16T03:18:38;98028.31;;;3.67;76.44
19624;BME280;9959;49.798;9.928;2023-01-16T03:21:17;98014.19;;;3.73;76.51
19624;BME280;9959;49.798;9.928;2023-01-16T03:24:27;98013.78;;;3.70;75.75
19624;BME280;9959;49.798;9.928;2023-01-16T03:27:17;98010.69;;;3.80;75.56
19624;BME280;9959;49.798;9.928;2023-01-16T03:30:13;97999.22;;;3.72;76.08
19624;BME280;9959;49.798;9.928;2023-01-16T03:32:46;97988.31;;;3.87;75.71
19624;BME280;9959;49.798;9.928;2023-01-16T03:35:24;97991.84;;;3.81;75.66
19624;BME280;9959;49.798;9.928;2023-01-16T03:37:57;97988.38;;;3.81;76.58
19624;BME280;9959;49.798;9.928;2023-01-16T03:40:31;97985.88;;;3.86;75.74
19624;BME280;9959;49.798;9.928;2023-01-16T03:43:06;97980.31;;;3.87;76.05
19624;BME280;9959;49.798;9.928;2023-01-16T03:48:11;97965.22;;;3.81;76.09
19624;BME280;9959;49.798;9.928;2023-01-16T03:50:44;97952.09;;;3.80;76.98
19624;BME280;9959;49.798;9.928;2023-01-16T03:53:15;97954.94;;;3.85;76.56
19624;BME280;9959;49.798;9.928;2023-01-16T03:55:53;97939.56;;;3.87;75.43
19624;BME280;9959;49.798;9.928;2023-01-16T03:58:35;97940.78;;;3.91;75.99
19624;BME280;9959;49.798;9.928;2023-01-16T04:06:49;97930.13;;;3.91;75.84
19624;BME280;9959;49.798;9.928;2023-01-16T04:12:07;97916.78;;;3.91;76.02
19624;BME280;9959;49.798;9.928;2023-01-16T04:14:35;97917.00;;;3.96;75.43
19624;BME280;9959;49.798;9.928;2023-01-16T04:17:03;97907.56;;;3.93;75.53
19624;BME280;9959;49.798;9.928;2023-01-16T04:19:30;97898.09;;;4.04;75.26
19624;BME280;9959;49.798;9.928;2023-01-16T04:21:59;97886.03;;;3.95;75.16
19624;BME280;9959;49.798;9.928;2023-01-16T04:24:26;97869.22;;;4.01;74.87
19624;BME280;9959;49.798;9.928;2023-01-16T04:26:52;97870.84;;;4.02;73.45
19624;BME280;9959;49.798;9.928;2023-01-16T04:29:22;97875.38;;;3.95;74.53
19624;BME280;9959;49.798;9.928;2023-01-16T04:31:49;97872.13;;;3.93;74.21
19624;BME280;9959;49.798;9.928;2023-01-16T04:34:15;97874.53;;;4.01;74.58
19624;BME280;9959;49.798;9.928;2023-01-16T04:36:42;97863.47;;;4.04;74.72
19624;BME280;9959;49.798;9.928;2023-01-16T04:39:09;97860.66;;;3.92;73.79
19624;BME280;9959;49.798;9.928;2023-01-16T04:41:36;97857.78;;;3.94;74.50
19624;BME280;9959;49.798;9.928;2023-01-16T04:44:04;97855.28;;;3.99;73.53
19624;BME280;9959;49.798;9.928;2023-01-16T04:46:31;97852.22;;;3.95;74.93
19624;BME280;9959;49.798;9.928;2023-01-16T04:48:58;97845.06;;;3.96;74.33
19624;BME280;9959;49.798;9.928;2023-01-16T04:51:25;97835.25;;;3.90;74.80
19624;BME280;9959;49.798;9.928;2023-01-16T04:53:52;97835.44;;;3.95;74.31
19624;BME280;9959;49.798;9.928;2023-01-16T04:56:19;97830.72;;;3.97;73.93
19624;BME280;9959;49.798;9.928;2023-01-16T04:58:46;97829.47;;;3.99;74.38
19624;BME280;9959;49.798;9.928;2023-01-16T05:01:12;97826.19;;;3.97;73.75
19624;BME280;9959;49.798;9.928;2023-01-16T05:03:39;97818.63;;;3.94;74.76
19624;BME280;9959;49.798;9.928;2023-01-16T05:06:06;97811.88;;;3.92;74.60
19624;BME280;9959;49.798;9.928;2023-01-16T05:08:33;97812.28;;;3.95;73.65
19624;BME280;9959;49.798;9.928;2023-01-16T05:11:00;97804.28;;;3.95;74.19
19624;BME280;9959;49.798;9.928;2023-01-16T05:13:28;97792.84;;;3.88;74.56
19624;BME280;9959;49.798;9.928;2023-01-16T05:15:55;97797.91;;;3.96;74.40
19624;BME280;9959;49.798;9.928;2023-01-16T05:18:23;97787.28;;;3.90;74.21
19624;BME280;9959;49.798;9.928;2023-01-16T05:20:50;97787.47;;;3.95;74.64
19624;BME280;9959;49.798;9.928;2023-01-16T05:23:17;97773.34;;;3.94;73.67
19624;BME280;9959;49.798;9.928;2023-01-16T05:25:44;97771.31;;;3.90;74.29
19624;BME280;9959;49.798;9.928;2023-01-16T05:28:11;97766.78;;;3.97;74.02
19624;BME280;9959;49.798;9.928;2023-01-16T05:30:38;97761.88;;;3.94;73.53
19624;BME280;9959;49.798;9.928;2023-01-16T05:33:07;97761.06;;;3.93;73.79
19624;BME280;9959;49.798;9.928;2023-01-16T05:35:33;97759.38;;;3.99;74.29
19624;BME280;9959;49.798;9.928;2023-01-16T05:38:00;97748.72;;;3.99;75.71
19624;BME280;9959;49.798;9.928;2023-01-16T05:40:27;97740.56;;;3.94;74.33
19624;BME280;9959;49.798;9.928;2023-01-16T05:42:54;97743.81;;;3.96;73.76
19624;BME280;9959;49.798;9.928;2023-01-16T05:45:20;97726.16;;;4.01;74.41
19624;BME280;9959;49.798;9.928;2023-01-16T05:47:47;97721.91;;;3.94;74.60
19624;BME280;9959;49.798;9.928;2023-01-16T05:50:14;97718.47;;;3.87;75.88
19624;BME280;9959;49.798;9.928;2023-01-16T05:52:41;97705.38;;;3.85;75.28
19624;BME280;9959;49.798;9.928;2023-01-16T05:55:08;97700.00;;;3.92;75.36
19624;BME280;9959;49.798;9.928;2023-01-16T05:57:34;97690.19;;;3.86;75.24
19624;BME280;9959;49.798;9.928;2023-01-16T06:00:03;97685.75;;;3.80;75.33
19624;BME280;9959;49.798;9.928;2023-01-16T06:02:30;97682.06;;;3.81;75.30
19624;BME280;9959;49.798;9.928;2023-01-16T06:04:57;97679.25;;;3.76;75.32
19624;BME280;9959;49.798;9.928;2023-01-16T06:07:23;97682.97;;;3.68;74.88
19624;BME280;9959;49.798;9.928;2023-01-16T06:09:50;97673.19;;;3.62;76.48
19624;BME280;9959;49.798;9.928;2023-01-16T06:12:18;97669.91;;;3.60;75.15
19624;BME280;9959;49.798;9.928;2023-01-16T06:14:45;97662.59;;;3.55;76.12
19624;BME280;9959;49.798;9.928;2023-01-16T06:17:15;97655.19;;;3.57;76.55
19624;BME280;9959;49.798;9.928;2023-01-16T06:19:43;97650.81;;;3.38;76.94
19624;BME280;9959;49.798;9.928;2023-01-16T06:22:13;97636.13;;;3.29;78.12
19624;BME280;9959;49.798;9.928;2023-01-16T06:24:40;97637.88;;;3.17;78.57
19624;BME280;9959;49.798;9.928;2023-01-16T06:27:07;97626.84;;;3.06;79.09
19624;BME280;9959;49.798;9.928;2023-01-16T06:29:34;97620.81;;;2.93;78.53
19624;BME280;9959;49.798;9.928;2023-01-16T06:32:01;97611.41;;;2.90;78.79
19624;BME280;9959;49.798;9.928;2023-01-16T06:34:28;97609.63;;;2.78;78.70
19624;BME280;9959;49.798;9.928;2023-01-16T06:36:55;97612.34;;;2.71;79.56
19624;BME280;9959;49.798;9.928;2023-01-16T06:39:21;97605.81;;;2.67;79.75
19624;BME280;9959;49.798;9.928;2023-01-16T06:41:48;97601.75;;;2.58;80.41
19624;BME280;9959;49.798;9.928;2023-01-16T06:44:15;97595.22;;;2.54;81.57
19624;BME280;9959;49.798;9.928;2023-01-16T06:46:42;97593.59;;;2.53;80.84
19624;BME280;9959;49.798;9.928;2023-01-16T06:49:10;97574.03;;;2.41;81.97
19624;BME280;9959;49.798;9.928;2023-01-16T06:51:37;97573.44;;;2.32;82.51
19624;BME280;9959;49.798;9.928;2023-01-16T06:54:04;97565.06;;;2.28;82.34
19624;BME280;9959;49.798;9.928;2023-01-16T06:56:31;97563.44;;;2.21;82.54
19624;BME280;9959;49.798;9.928;2023-01-16T06:58:58;97551.66;;;2.10;84.04
19624;BME280;9959;49.798;9.928;2023-01-16T07:01:25;97552.06;;;2.14;83.15
19624;BME280;9959;49.798;9.928;2023-01-16T07:03:52;97546.16;;;2.05;83.60
19624;BME280;9959;49.798;9.928;2023-01-16T07:06:18;97533.06;;;2.10;83.42
19624;BME280;9959;49.798;9.928;2023-01-16T07:08:45;97523.69;;;2.01;83.86
19624;BME280;9959;49.798;9.928;2023-01-16T07:11:16;97518.59;;;1.99;83.65
19624;BME280;9959;49.798;9.928;2023-01-16T07:13:43;97518.03;;;1.91;84.33
19624;BME280;9959;49.798;9.928;2023-01-16T07:16:14;97510.47;;;1.88;83.74
19624;BME280;9959;49.798;9.928;2023-01-16T07:19:00;97515.78;;;1.88;84.33
19624;BME280;9959;49.798;9.928;2023-01-16T07:21:47;97513.28;;;1.93;82.98
19624;BME280;9959;49.798;9.928;2023-01-16T07:24:35;97507.97;;;1.93;82.58
19624;BME280;9959;49.798;9.928;2023-01-16T07:27:05;97504.28;;;1.94;83.20
19624;BME280;9959;49.798;9.928;2023-01-16T07:29:33;97507.59;;;1.89;82.64
19624;BME280;9959;49.798;9.928;2023-01-16T07:32:01;97497.56;;;1.98;82.53
19624;BME280;9959;49.798;9.928;2023-01-16T07:34:29;97494.06;;;1.97;82.11
19624;BME280;9959;49.798;9.928;2023-01-16T07:36:55;97488.81;;;1.91;81.82
19624;BME280;9959;49.798;9.928;2023-01-16T07:39:22;97493.31;;;1.90;82.16
19624;BME280;9959;49.798;9.928;2023-01-16T07:41:49;97492.03;;;1.93;82.27
19624;BME280;9959;49.798;9.928;2023-01-16T07:44:23;97479.22;;;1.90;82.17
19624;BME280;9959;49.798;9.928;2023-01-16T07:46:50;97481.88;;;1.90;81.90
19624;BME280;9959;49.798;9.928;2023-01-16T07:49:17;97471.25;;;1.90;82.22
19624;BME280;9959;49.798;9.928;2023-01-16T07:51:43;97471.47;;;1.88;82.51
19624;BME280;9959;49.798;9.928;2023-01-16T07:54:10;97464.13;;;1.84;82.23
19624;BME280;9959;49.798;9.928;2023-01-16T07:56:38;97457.78;;;1.85;82.61
19624;BME280;9959;49.798;9.928;2023-01-16T07:59:05;97459.41;;;1.86;82.65
19624;BME280;9959;49.798;9.928;2023-01-16T08:01:33;97447.50;;;1.95;82.34
19624;BME280;9959;49.798;9.928;2023-01-16T08:03:59;97447.16;;;1.85;82.75
19624;BME280;9959;49.798;9.928;2023-01-16T08:06:26;97443.31;;;1.81;82.40
19624;BME280;9959;49.798;9.928;2023-01-16T08:08:53;97436.16;;;1.81;81.99
19624;BME280;9959;49.798;9.928;2023-01-16T08:11:20;97434.50;;;1.87;82.21
19624;BME280;9959;49.798;9.928;2023-01-16T08:14:02;97426.69;;;1.92;81.75
19624;BME280;9959;49.798;9.928;2023-01-16T08:16:29;97434.91;;;1.84;81.75
19624;BME280;9959;49.798;9.928;2023-01-16T08:18:56;97428.97;;;1.88;81.36
19624;BME280;9959;49.798;9.928;2023-01-16T08:21:23;97431.25;;;1.85;81.09
19624;BME280;9959;49.798;9.928;2023-01-16T08:23:50;97425.09;;;1.91;81.44
19624;BME280;9959;49.798;9.928;2023-01-16T08:26:16;97405.81;;;2.02;81.52
19624;BME280;9959;49.798;9.928;2023-01-16T08:28:43;97414.59;;;2.02;80.98
19624;BME280;9959;49.798;9.928;2023-01-16T08:31:12;97407.22;;;2.11;80.78
19624;BME280;9959;49.798;9.928;2023-01-16T08:33:42;97401.28;;;2.16;80.69
19624;BME280;9959;49.798;9.928;2023-01-16T08:36:11;97385.75;;;2.13;80.13
19624;BME280;9959;49.798;9.928;2023-01-16T08:38:38;97386.38;;;2.08;80.42
19624;BME280;9959;49.798;9.928;2023-01-16T08:41:05;97377.56;;;2.14;80.72
19624;BME280;9959;49.798;9.928;2023-01-16T08:43:52;97376.38;;;2.10;80.50
19624;BME280;9959;49.798;9.928;2023-01-16T08:46:37;97365.31;;;2.13;80.43
19624;BME280;9959;49.798;9.928;2023-01-16T08:49:24;97359.09;;;2.26;79.82
19624;BME280;9959;49.798;9.928;2023-01-16T08:52:05;97353.81;;;2.19;79.15
19624;BME280;9959;49.798;9.928;2023-01-16T08:54:32;97357.88;;;2.22;79.51
19624;BME280;9959;49.798;9.928;2023-01-16T08:56:59;97348.25;;;2.27;79.83
19624;BME280;9959;49.798;9.928;2023-01-16T08:59:26;97343.47;;;2.43;78.33
19624;BME280;9959;49.798;9.928;2023-01-16T09:01:53;97341.47;;;2.31;78.71
19624;BME280;9959;49.798;9.928;2023-01-16T09:04:19;97329.56;;;2.41;78.85
19624;BME280;9959;49.798;9.928;2023-01-16T09:06:46;97330.91;;;2.50;78.00
19624;BME280;9959;49.798;9.928;2023-01-16T09:09:14;97337.03;;;2.50;77.90
19624;BME280;9959;49.798;9.928;2023-01-16T09:11:41;97332.28;;;2.59;77.91
19624;BME280;9959;49.798;9.928;2023-01-16T09:14:26;97323.50;;;2.77;77.25
19624;BME280;9959;49.798;9.928;2023-01-16T09:16:53;97313.84;;;2.64;77.12
19624;BME280;9959;49.798;9.928;2023-01-16T09:19:20;97318.88;;;2.72;76.99
19624;BME280;9959;49.798;9.928;2023-01-16T09:21:47;97303.00;;;3.02;75.90
19624;BME280;9959;49.798;9.928;2023-01-16T09:24:13;97302.34;;;2.88;76.30
19624;BME280;9959;49.798;9.928;2023-01-16T09:26:40;97300.34;;;3.02;75.24
19624;BME280;9959;49.798;9.928;2023-01-16T09:29:07;97292.97;;;3.04;74.97
19624;BME280;9959;49.798;9.928;2023-01-16T09:31:34;97282.25;;;3.11;75.80
19624;BME280;9959;49.798;9.928;2023-01-16T09:34:00;97285.63;;;3.36;74.47
19624;BME280;9959;49.798;9.928;2023-01-16T09:36:27;97283.84;;;3.48;73.15
19624;BME280;9959;49.798;9.928;2023-01-16T09:38:54;97284.41;;;3.68;71.70
19624;BME280;9959;49.798;9.928;2023-01-16T09:41:21;97268.69;;;3.79;72.22
19624;BME280;9959;49.798;9.928;2023-01-16T09:44:10;97260.66;;;4.08;69.53
19624;BME280;9959;49.798;9.928;2023-01-16T09:46:42;97268.88;;;4.07;70.35
19624;BME280;9959;49.798;9.928;2023-01-16T09:49:23;97260.00;;;4.36;68.15
19624;BME280;9959;49.798;9.928;2023-01-16T09:52:02;97261.41;;;4.51;68.04
19624;BME280;9959;49.798;9.928;2023-01-16T09:54:54;97242.47;;;4.75;67.00
19624;BME280;9959;49.798;9.928;2023-01-16T09:57:44;97233.06;;;4.96;66.11
19624;BME280;9959;49.798;9.928;2023-01-16T10:00:34;97219.28;;;5.28;64.96
19624;BME280;9959;49.798;9.928;2023-01-16T10:03:02;97211.41;;;5.50;63.89
19624;BME280;9959;49.798;9.928;2023-01-16T10:05:38;97205.19;;;5.16;64.38
19624;BME280;9959;49.798;9.928;2023-01-16T10:08:30;97190.56;;;5.47;62.97
19624;BME280;9959;49.798;9.928;2023-01-16T10:16:47;97194.22;;;6.19;59.45
19624;BME280;9959;49.798;9.928;2023-01-16T10:25:34;97175.88;;;5.49;60.49
19624;BME280;9959;49.798;9.928;2023-01-16T10:31:09;97154.81;;;6.31;57.96
19624;BME280;9959;49.798;9.928;2023-01-16T10:33:59;97157.47;;;6.31;57.42
19624;BME280;9959;49.798;9.928;2023-01-16T10:36:31;97153.94;;;6.64;56.30
19624;BME280;9959;49.798;9.928;2023-01-16T10:38:59;97156.97;;;5.96;57.74
19624;BME280;9959;49.798;9.928;2023-01-16T10:41:33;97159.53;;;5.74;59.13
19624;BME280;9959;49.798;9.928;2023-01-16T10:44:17;97158.81;;;5.50;59.64
19624;BME280;9959;49.798;9.928;2023-01-16T10:47:03;97162.47;;;5.44;60.51
19624;BME280;9959;49.798;9.928;2023-01-16T10:49:48;97154.88;;;5.53;60.31
19624;BME280;9959;49.798;9.928;2023-01-16T10:52:15;97162.53;;;5.49;60.48
19624;BME280;9959;49.798;9.928;2023-01-16T10:54:42;97162.53;;;5.49;61.92
19624;BME280;9959;49.798;9.928;2023-01-16T10:57:16;97160.69;;;5.21;63.41
19624;BME280;9959;49.798;9.928;2023-01-16T10:59:45;97170.41;;;4.59;72.63
19624;BME280;9959;49.798;9.928;2023-01-16T11:08:10;97126.06;;;3.83;82.67
19624;BME280;9959;49.798;9.928;2023-01-16T11:10:42;97119.06;;;3.58;83.72
19624;BME280;9959;49.798;9.928;2023-01-16T11:13:15;97121.28;;;3.61;86.12
19624;BME280;9959;49.798;9.928;2023-01-16T11:18:58;97104.47;;;3.61;86.59
19624;BME280;9959;49.798;9.928;2023-01-16T11:21:31;97111.44;;;3.62;87.66
19624;BME280;9959;49.798;9.928;2023-01-16T11:24:16;97100.09;;;3.66;89.16
19624;BME280;9959;49.798;9.928;2023-01-16T11:26:50;97102.50;;;3.56;90.09
19624;BME280;9959;49.798;9.928;2023-01-16T11:29:20;97083.66;;;3.46;89.75
19624;BME280;9959;49.798;9.928;2023-01-16T11:31:58;97067.41;;;3.36;89.09
19624;BME280;9959;49.798;9.928;2023-01-16T11:34:27;97064.06;;;3.40;90.14
19624;BME280;9959;49.798;9.928;2023-01-16T11:36:57;97058.06;;;3.45;89.89
19624;BME280;9959;49.798;9.928;2023-01-16T11:39:30;97048.34;;;3.39;89.84
19624;BME280;9959;49.798;9.928;2023-01-16T11:41:59;97044.75;;;3.57;88.78
19624;BME280;9959;49.798;9.928;2023-01-16T11:44:49;97039.78;;;3.60;88.66
19624;BME280;9959;49.798;9.928;2023-01-16T11:50:21;97034.38;;;3.79;86.86
19624;BME280;9959;49.798;9.928;2023-01-16T11:52:51;97021.25;;;3.89;86.09
19624;BME280;9959;49.798;9.928;2023-01-16T11:55:18;97019.84;;;3.86;85.70
19624;BME280;9959;49.798;9.928;2023-01-16T12:11:20;96974.63;;;4.55;77.52
19624;BME280;9959;49.798;9.928;2023-01-16T12:25:23;96950.00;;;4.81;70.89
19624;BME280;9959;49.798;9.928;2023-01-16T12:28:06;96937.41;;;4.93;71.88
19624;BME280;9959;49.798;9.928;2023-01-16T12:33:15;96944.13;;;4.79;69.80
19624;BME280;9959;49.798;9.928;2023-01-16T12:36:07;96937.88;;;4.57;72.03
19624;BME280;9959;49.798;9.928;2023-01-16T12:39:07;96933.72;;;4.49;74.73
19624;BME280;9959;49.798;9.928;2023-01-16T12:44:35;96928.13;;;4.34;79.89
19624;BME280;9959;49.798;9.928;2023-01-16T12:47:14;96933.78;;;4.09;80.70
19624;BME280;9959;49.798;9.928;2023-01-16T12:57:58;96885.16;;;4.02;82.79
19624;BME280;9959;49.798;9.928;2023-01-16T13:03:12;96868.38;;;4.01;83.45
19624;BME280;9959;49.798;9.928;2023-01-16T13:05:42;96861.56;;;3.94;82.03
19624;BME280;9959;49.798;9.928;2023-01-16T13:08:22;96854.81;;;4.03;80.47
19624;BME280;9959;49.798;9.928;2023-01-16T13:10:55;96849.97;;;4.00;81.54
19624;BME280;9959;49.798;9.928;2023-01-16T13:13:56;96848.19;;;4.05;80.84
19624;BME280;9959;49.798;9.928;2023-01-16T13:16:33;96842.56;;;4.19;79.77
19624;BME280;9959;49.798;9.928;2023-01-16T13:19:13;96846.94;;;4.25;79.46
19624;BME280;9959;49.798;9.928;2023-01-16T13:24:55;96834.19;;;4.10;78.66
19624;BME280;9959;49.798;9.928;2023-01-16T13:30:08;96817.84;;;4.06;79.72
19624;BME280;9959;49.798;9.928;2023-01-16T13:32:43;96805.50;;;4.00;80.87
19624;BME280;9959;49.798;9.928;2023-01-16T13:35:21;96809.44;;;3.98;81.79
19624;BME280;9959;49.798;9.928;2023-01-16T13:41:25;96785.28;;;3.88;82.62
19624;BME280;9959;49.798;9.928;2023-01-16T13:46:53;96777.25;;;4.16;82.84
19624;BME280;9959;49.798;9.928;2023-01-16T13:49:23;96769.38;;;3.93;83.69
19624;BME280;9959;49.798;9.928;2023-01-16T13:51:52;96758.75;;;3.93;84.85
19624;BME280;9959;49.798;9.928;2023-01-16T13:54:24;96751.78;;;3.92;85.01
19624;BME280;9959;49.798;9.928;2023-01-16T13:57:00;96752.56;;;4.04;84.91
19624;BME280;9959;49.798;9.928;2023-01-16T14:10:23;96722.09;;;4.17;84.16
19624;BME280;9959;49.798;9.928;2023-01-16T14:21:21;96683.97;;;4.50;81.79
19624;BME280;9959;49.798;9.928;2023-01-16T14:23:53;96676.38;;;4.41;81.32
19624;BME280;9959;49.798;9.928;2023-01-16T14:29:13;96672.53;;;4.32;82.04
19624;BME280;9959;49.798;9.928;2023-01-16T14:31:45;96656.38;;;4.22;82.46
19624;BME280;9959;49.798;9.928;2023-01-16T14:37:11;96646.22;;;4.19;83.12
19624;BME280;9959;49.798;9.928;2023-01-16T14:39:49;96636.69;;;4.23;82.47
19624;BME280;9959;49.798;9.928;2023-01-16T14:42:27;96636.69;;;4.23;82.89
19624;BME280;9959;49.798;9.928;2023-01-16T14:45:18;96618.78;;;4.40;81.75
19624;BME280;9959;49.798;9.928;2023-01-16T14:53:57;96582.16;;;4.53;80.52
19624;BME280;9959;49.798;9.928;2023-01-16T14:56:48;96584.13;;;4.40;80.93
19624;BME280;9959;49.798;9.928;2023-01-16T14:59:29;96580.56;;;4.52;80.22
19624;BME280;9959;49.798;9.928;2023-01-16T15:02:08;96571.69;;;4.46;80.74
19624;BME280;9959;49.798;9.928;2023-01-16T15:05:02;96568.03;;;4.30;81.29
19624;BME280;9959;49.798;9.928;2023-01-16T15:10:18;96541.72;;;4.34;81.50
19624;BME280;9959;49.798;9.928;2023-01-16T15:12:47;96533.34;;;4.25;81.96
19624;BME280;9959;49.798;9.928;2023-01-16T15:15:24;96530.34;;;4.22;81.46
19624;BME280;9959;49.798;9.928;2023-01-16T15:17:54;96526.53;;;4.34;81.49
19624;BME280;9959;49.798;9.928;2023-01-16T15:20:42;96512.19;;;4.19;81.14
19624;BME280;9959;49.798;9.928;2023-01-16T15:31:06;96497.75;;;3.93;83.34
19624;BME280;9959;49.798;9.928;2023-01-16T15:33:35;96491.31;;;3.89;83.06
19624;BME280;9959;49.798;9.928;2023-01-16T15:36:02;96488.06;;;3.87;83.31
19624;BME280;9959;49.798;9.928;2023-01-16T15:38:34;96482.16;;;3.80;83.76
19624;BME280;9959;49.798;9.928;2023-01-16T15:41:02;96483.75;;;3.81;84.17
19624;BME280;9959;49.798;9.928;2023-01-16T15:43:30;96472.41;;;3.68;84.28
19624;BME280;9959;49.798;9.928;2023-01-16T15:46:21;96464.06;;;3.82;83.42
19624;BME280;9959;49.798;9.928;2023-01-16T15:49:21;96454.88;;;3.72;83.77
19624;BME280;9959;49.798;9.928;2023-01-16T15:51:56;96451.09;;;3.68;83.79
19624;BME280;9959;49.798;9.928;2023-01-16T15:54:25;96439.09;;;3.66;84.09
19624;BME280;9959;49.798;9.928;2023-01-16T15:56:54;96441.59;;;3.72;83.69
19624;BME280;9959;49.798;9.928;2023-01-16T15:59:28;96446.19;;;3.60;84.54
19624;BME280;9959;49.798;9.928;2023-01-16T16:04:46;96434.66;;;3.71;83.45
19624;BME280;9959;49.798;9.928;2023-01-16T16:07:14;96422.19;;;3.55;84.12
19624;BME280;9959;49.798;9.928;2023-01-16T16:09:43;96417.38;;;3.52;84.98
19624;BME280;9959;49.798;9.928;2023-01-16T16:12:11;96410.94;;;3.48;84.38
19624;BME280;9959;49.798;9.928;2023-01-16T16:14:38;96407.81;;;3.56;84.08
19624;BME280;9959;49.798;9.928;2023-01-16T16:17:32;96397.94;;;3.73;83.29
19624;BME280;9959;49.798;9.928;2023-01-16T16:22:51;96388.38;;;3.56;83.58
19624;BME280;9959;49.798;9.928;2023-01-16T16:25:34;96382.88;;;3.62;82.72
19624;BME280;9959;49.798;9.928;2023-01-16T16:28:24;96380.72;;;3.59;82.70
19624;BME280;9959;49.798;9.928;2023-01-16T16:30:57;96376.63;;;3.73;81.86
19624;BME280;9959;49.798;9.928;2023-01-16T16:33:26;96374.53;;;3.76;80.85
19624;BME280;9959;49.798;9.928;2023-01-16T16:35:58;96384.19;;;3.82;80.71
19624;BME280;9959;49.798;9.928;2023-01-16T16:38:39;96368.41;;;3.75;81.17
19624;BME280;9959;49.798;9.928;2023-01-16T16:49:34;96378.16;;;3.91;78.80
19624;BME280;9959;49.798;9.928;2023-01-16T16:51:39;96368.31;;;3.92;79.24
19624;BME280;9959;49.798;9.928;2023-01-16T16:54:09;96371.03;;;3.97;77.83